GMT,Max TemperatureF,Mean TemperatureF,Min TemperatureF,Max Dew PointF,MeanDew PointF,Min DewpointF,Max Humidity, Mean Humidity, Min Humidity, Max Sea Level PressureIn, Mean Sea Level PressureIn, Min Sea Level PressureIn, Max VisibilityMiles, Mean VisibilityMiles, Min VisibilityMiles, Max Wind SpeedMPH, Mean Wind SpeedMPH, Max Gust SpeedMPH,PrecipitationIn, CloudCover, Events, WindDirDegrees
2011-11-1,51,46,42,48,44,39,94,85,76,29.71,29.62,29.53,6,6,6,15,8,,0.00,3,Rain,188
2011-11-2,57,50,42,50,46,41,93,80,72,29.65,29.45,29.24,6,6,6,17,10,,0.00,4,Rain,104
2011-11-3,60,55,50,54,52,48,94,84,72,29.24,29.17,29.12,6,6,5,18,11,,0.00,4,Rain,110
2011-11-4,55,45,35,52,45,34,100,91,72,29.59,29.32,29.15,6,6,2,10,5,,0.00,4,Fog-Rain,110
2011-11-5,50,40,30,46,36,30,100,95,81,30.15,29.88,29.59,6,3,0,9,2,,0.00,4,Fog,252
2011-11-6,48,37,26,43,33,25,100,94,76,30.36,30.30,30.15,6,1,0,4,1,,0.00,6,Fog-Snow,317
2011-11-7,41,34,26,41,36,27,100,98,93,30.39,30.30,30.18,3,1,0,9,2,,0.00,7,Fog,84
2011-11-8,51,45,39,48,45,37,100,91,87,30.15,30.01,29.89,6,4,2,14,6,,0.00,7,,71
2011-11-9,53,50,48,50,48,46,94,88,77,29.89,29.83,29.80,6,6,2,12,9,21,0.00,6,Rain,84
2011-11-10,59,52,44,50,47,43,100,88,72,30.06,29.98,29.86,6,6,3,10,6,,0.00,2,Fog-Rain,90
2011-11-11,51,50,50,50,47,45,94,86,76,30.04,29.91,29.83,6,5,3,20,14,,0.00,5,Rain,86
2011-11-12,53,45,37,48,45,36,100,88,77,30.42,30.16,29.86,6,6,1,13,7,,0.00,2,Fog-Rain,152
2011-11-13,53,44,35,50,46,36,100,92,87,30.42,30.38,30.33,6,5,1,16,7,,0.00,3,Fog,78
2011-11-14,50,48,46,48,45,41,94,88,76,30.33,30.28,30.21,6,5,3,17,12,,0.00,5,,79
2011-11-15,51,46,41,46,43,37,87,83,76,30.21,30.14,30.09,6,6,4,13,9,,0.00,6,,78
2011-11-16,48,42,35,43,39,34,93,87,71,30.12,30.00,29.89,6,4,3,10,5,18,0.00,5,,96
2011-11-17,55,48,42,52,46,41,100,90,82,29.86,29.76,29.65,6,5,2,21,8,32,0.00,6,Rain,152
2011-11-18,57,55,53,54,52,50,94,87,82,29.83,29.74,29.65,6,6,3,20,15,,0.00,6,Rain,186
2011-11-19,55,52,50,50,47,46,94,85,77,29.98,29.92,29.83,6,6,6,12,6,,0.00,5,,105
2011-11-20,53,52,50,50,49,46,94,89,82,29.98,29.94,29.89,6,5,3,10,5,,0.00,6,Rain,173
2011-11-21,55,52,48,52,49,46,100,90,82,29.92,29.87,29.83,6,5,2,9,5,,0.00,6,Rain,114
2011-11-22,50,44,39,48,40,36,94,83,62,30.04,30.01,29.92,6,6,3,20,7,,0.00,4,Rain,230
2011-11-23,53,50,46,50,47,45,100,90,82,30.06,29.97,29.89,6,5,2,25,18,37,0.00,7,Rain,226
2011-11-24,55,50,46,52,47,41,100,87,72,30.06,29.87,29.65,6,5,1,32,12,45,0.00,6,Rain-Thunderstorm,212
2011-11-25,48,44,39,41,37,34,93,82,66,30.06,29.91,29.74,6,6,3,28,16,44,0.00,4,Rain,247
2011-11-26,55,50,46,52,49,41,94,90,81,30.01,29.75,29.42,6,4,2,34,24,47,0.00,7,Rain-Thunderstorm,222
2011-11-27,53,48,42,52,40,36,94,78,66,30.09,29.82,29.39,6,6,2,34,22,50,0.00,4,Rain-Thunderstorm,257
2011-11-28,55,48,44,52,44,37,94,82,71,30.09,29.80,29.42,6,5,3,23,15,31,0.00,6,Rain,208
2011-11-29,55,47,37,52,44,34,100,87,76,29.56,29.29,29.09,6,5,2,30,22,43,0.00,6,Rain,231
2011-11-30,50,44,37,45,41,34,87,82,76,29.77,29.60,29.18,6,6,3,33,17,47,0.00,5,Rain,210